sensor_id;sensor_type;location;lat;lon;timestamp;temperature;humidity
52415;DHT22;38340;52.964;6.086;2023-03-25T00:00:58;9.60;99.90
52415;DHT22;38340;52.964;6.086;2023-03-25T00:03:29;9.60;99.90
52415;DHT22;38340;52.964;6.086;2023-03-25T00:05:56;9.50;99.90
52415;DHT22;38340;52.964;6.086;2023-03-25T00:08:25;9.50;99.90
52415;DHT22;38340;52.964;6.086;2023-03-25T00:10:55;9.50;99.90
52415;DHT22;38340;52.964;6.086;2023-03-25T00:13:21;9.50;99.90
52415;DHT22;38340;52.964;6.086;2023-03-25T00:15:49;9.40;99.90
52415;DHT22;38340;52.964;6.086;2023-03-25T00:18:20;9.50;99.90
52415;DHT22;38340;52.964;6.086;2023-03-25T00:20:51;9.40;99.90
52415;DHT22;38340;52.964;6.086;2023-03-25T00:23:18;9.30;99.90
52415;DHT22;38340;52.964;6.086;2023-03-25T00:25:44;9.20;99.90
52415;DHT22;38340;52.964;6.086;2023-03-25T00:28:11;9.10;99.90
52415;DHT22;38340;52.964;6.086;2023-03-25T00:30:38;9.10;99.90
52415;DHT22;38340;52.964;6.086;2023-03-25T00:33:04;9.10;99.90
52415;DHT22;38340;52.964;6.086;2023-03-25T00:35:29;9.10;99.90
52415;DHT22;38340;52.964;6.086;2023-03-25T00:37:55;9.00;99.90
52415;DHT22;38340;52.964;6.086;2023-03-25T00:40:29;9.00;99.90
52415;DHT22;38340;52.964;6.086;2023-03-25T00:43:00;9.00;99.90
52415;DHT22;38340;52.964;6.086;2023-03-25T00:45:26;9.00;99.90
52415;DHT22;38340;52.964;6.086;2023-03-25T00:47:51;9.00;99.90
52415;DHT22;38340;52.964;6.086;2023-03-25T00:50:17;8.90;99.90
52415;DHT22;38340;52.964;6.086;2023-03-25T00:52:43;8.90;99.90
52415;DHT22;38340;52.964;6.086;2023-03-25T00:55:09;8.90;99.90
52415;DHT22;38340;52.964;6.086;2023-03-25T00:57:35;8.90;99.90
52415;DHT22;38340;52.964;6.086;2023-03-25T01:00:03;8.90;99.90
52415;DHT22;38340;52.964;6.086;2023-03-25T01:02:30;8.90;99.90
52415;DHT22;38340;52.964;6.086;2023-03-25T01:04:58;8.90;99.90
52415;DHT22;38340;52.964;6.086;2023-03-25T01:07:24;8.90;99.90
52415;DHT22;38340;52.964;6.086;2023-03-25T01:09:50;8.90;99.90
52415;DHT22;38340;52.964;6.086;2023-03-25T01:12:16;8.90;99.90
52415;DHT22;38340;52.964;6.086;2023-03-25T01:14:43;8.90;99.90
52415;DHT22;38340;52.964;6.086;2023-03-25T01:17:10;8.90;99.90
52415;DHT22;38340;52.964;6.086;2023-03-25T01:19:35;9.00;99.90
52415;DHT22;38340;52.964;6.086;2023-03-25T01:22:01;9.00;99.90
52415;DHT22;38340;52.964;6.086;2023-03-25T01:24:27;9.00;99.90
52415;DHT22;38340;52.964;6.086;2023-03-25T01:26:53;9.00;99.90
52415;DHT22;38340;52.964;6.086;2023-03-25T01:29:20;9.10;99.90
52415;DHT22;38340;52.964;6.086;2023-03-25T01:31:46;9.10;99.90
52415;DHT22;38340;52.964;6.086;2023-03-25T01:34:13;9.10;99.90
52415;DHT22;38340;52.964;6.086;2023-03-25T01:36:39;9.10;99.90
52415;DHT22;38340;52.964;6.086;2023-03-25T01:39:07;9.10;99.90
52415;DHT22;38340;52.964;6.086;2023-03-25T01:41:34;9.10;99.90
52415;DHT22;38340;52.964;6.086;2023-03-25T01:46:38;9.10;99.90
52415;DHT22;38340;52.964;6.086;2023-03-25T01:49:15;9.10;99.90
52415;DHT22;38340;52.964;6.086;2023-03-25T01:51:46;9.10;99.90
52415;DHT22;38340;52.964;6.086;2023-03-25T01:54:15;9.10;99.90
52415;DHT22;38340;52.964;6.086;2023-03-25T01:56:44;9.10;99.90
52415;DHT22;38340;52.964;6.086;2023-03-25T01:59:13;9.10;99.90
52415;DHT22;38340;52.964;6.086;2023-03-25T02:01:40;9.10;99.90
52415;DHT22;38340;52.964;6.086;2023-03-25T02:04:12;9.10;99.90
52415;DHT22;38340;52.964;6.086;2023-03-25T02:06:42;9.10;99.90
52415;DHT22;38340;52.964;6.086;2023-03-25T02:09:09;9.10;99.90
52415;DHT22;38340;52.964;6.086;2023-03-25T02:11:37;9.10;99.90
52415;DHT22;38340;52.964;6.086;2023-03-25T02:14:06;9.10;99.90
52415;DHT22;38340;52.964;6.086;2023-03-25T02:22:13;9.10;99.90
52415;DHT22;38340;52.964;6.086;2023-03-25T02:39:07;9.10;99.90
52415;DHT22;38340;52.964;6.086;2023-03-25T02:44:36;9.10;99.90
52415;DHT22;38340;52.964;6.086;2023-03-25T02:47:07;9.10;99.90
52415;DHT22;38340;52.964;6.086;2023-03-25T02:49:36;9.10;99.90
52415;DHT22;38340;52.964;6.086;2023-03-25T02:52:24;9.10;99.90
52415;DHT22;38340;52.964;6.086;2023-03-25T02:54:51;9.10;99.90
52415;DHT22;38340;52.964;6.086;2023-03-25T02:57:23;9.10;99.90
52415;DHT22;38340;52.964;6.086;2023-03-25T02:59:50;9.10;99.90
52415;DHT22;38340;52.964;6.086;2023-03-25T03:02:20;9.10;99.90
52415;DHT22;38340;52.964;6.086;2023-03-25T03:04:49;9.20;99.90
52415;DHT22;38340;52.964;6.086;2023-03-25T03:12:54;9.20;99.90
52415;DHT22;38340;52.964;6.086;2023-03-25T03:15:53;9.20;99.90
52415;DHT22;38340;52.964;6.086;2023-03-25T03:21:20;9.10;99.90
52415;DHT22;38340;52.964;6.086;2023-03-25T03:23:55;9.10;99.90
52415;DHT22;38340;52.964;6.086;2023-03-25T03:26:38;9.10;99.90
52415;DHT22;38340;52.964;6.086;2023-03-25T03:31:55;9.10;99.90
52415;DHT22;38340;52.964;6.086;2023-03-25T03:34:34;9.20;99.90
52415;DHT22;38340;52.964;6.086;2023-03-25T03:37:06;9.20;99.90
52415;DHT22;38340;52.964;6.086;2023-03-25T03:39:37;9.20;99.90
52415;DHT22;38340;52.964;6.086;2023-03-25T03:42:24;9.20;99.90
52415;DHT22;38340;52.964;6.086;2023-03-25T03:44:56;9.20;99.90
52415;DHT22;38340;52.964;6.086;2023-03-25T03:47:29;9.10;99.90
52415;DHT22;38340;52.964;6.086;2023-03-25T03:50:07;9.20;99.90
52415;DHT22;38340;52.964;6.086;2023-03-25T03:52:43;9.10;99.90
52415;DHT22;38340;52.964;6.086;2023-03-25T03:55:13;9.20;99.90
52415;DHT22;38340;52.964;6.086;2023-03-25T03:57:53;9.20;99.90
52415;DHT22;38340;52.964;6.086;2023-03-25T04:00:43;9.20;99.90
52415;DHT22;38340;52.964;6.086;2023-03-25T04:03:23;9.10;99.90
52415;DHT22;38340;52.964;6.086;2023-03-25T04:06:10;9.10;99.90
52415;DHT22;38340;52.964;6.086;2023-03-25T04:08:48;9.10;99.90
52415;DHT22;38340;52.964;6.086;2023-03-25T04:11:22;9.10;99.90
52415;DHT22;38340;52.964;6.086;2023-03-25T04:13:51;9.10;99.90
52415;DHT22;38340;52.964;6.086;2023-03-25T04:16:19;9.10;99.90
52415;DHT22;38340;52.964;6.086;2023-03-25T04:18:44;9.10;99.90
52415;DHT22;38340;52.964;6.086;2023-03-25T04:21:12;9.10;99.90
52415;DHT22;38340;52.964;6.086;2023-03-25T04:23:40;9.10;99.90
52415;DHT22;38340;52.964;6.086;2023-03-25T04:26:06;9.10;99.90
52415;DHT22;38340;52.964;6.086;2023-03-25T04:28:32;9.10;99.90
52415;DHT22;38340;52.964;6.086;2023-03-25T04:30:58;9.10;99.90
52415;DHT22;38340;52.964;6.086;2023-03-25T04:33:25;9.10;99.90
52415;DHT22;38340;52.964;6.086;2023-03-25T04:35:51;9.10;99.90
52415;DHT22;38340;52.964;6.086;2023-03-25T04:38:18;9.10;99.90
52415;DHT22;38340;52.964;6.086;2023-03-25T04:40:45;9.10;99.90
52415;DHT22;38340;52.964;6.086;2023-03-25T04:43:14;9.10;99.90
52415;DHT22;38340;52.964;6.086;2023-03-25T04:45:41;9.10;99.90
52415;DHT22;38340;52.964;6.086;2023-03-25T04:48:33;9.10;99.90
52415;DHT22;38340;52.964;6.086;2023-03-25T04:51:06;9.10;99.90
52415;DHT22;38340;52.964;6.086;2023-03-25T04:53:35;9.10;99.90
52415;DHT22;38340;52.964;6.086;2023-03-25T04:56:01;9.10;99.90
52415;DHT22;38340;52.964;6.086;2023-03-25T04:58:27;9.10;99.90
52415;DHT22;38340;52.964;6.086;2023-03-25T05:00:53;9.10;99.90
52415;DHT22;38340;52.964;6.086;2023-03-25T05:03:19;9.10;99.90
52415;DHT22;38340;52.964;6.086;2023-03-25T05:05:49;9.10;99.90
52415;DHT22;38340;52.964;6.086;2023-03-25T05:08:16;9.00;99.90
52415;DHT22;38340;52.964;6.086;2023-03-25T05:10:42;9.00;99.90
52415;DHT22;38340;52.964;6.086;2023-03-25T05:13:09;8.90;99.90
52415;DHT22;38340;52.964;6.086;2023-03-25T05:15:35;8.90;99.90
52415;DHT22;38340;52.964;6.086;2023-03-25T05:18:09;8.90;99.90
52415;DHT22;38340;52.964;6.086;2023-03-25T05:20:40;8.90;99.90
52415;DHT22;38340;52.964;6.086;2023-03-25T05:23:07;8.90;99.90
52415;DHT22;38340;52.964;6.086;2023-03-25T05:25:40;8.80;99.90
52415;DHT22;38340;52.964;6.086;2023-03-25T05:28:06;8.80;99.90
52415;DHT22;38340;52.964;6.086;2023-03-25T05:30:35;8.80;99.90
52415;DHT22;38340;52.964;6.086;2023-03-25T05:33:04;8.80;99.90
52415;DHT22;38340;52.964;6.086;2023-03-25T05:35:30;8.80;99.90
52415;DHT22;38340;52.964;6.086;2023-03-25T05:37:55;8.80;99.90
52415;DHT22;38340;52.964;6.086;2023-03-25T05:40:22;8.90;99.90
52415;DHT22;38340;52.964;6.086;2023-03-25T05:42:48;8.90;99.90
52415;DHT22;38340;52.964;6.086;2023-03-25T05:45:15;8.90;99.90
52415;DHT22;38340;52.964;6.086;2023-03-25T05:47:41;8.90;99.90
52415;DHT22;38340;52.964;6.086;2023-03-25T05:50:08;8.90;99.90
52415;DHT22;38340;52.964;6.086;2023-03-25T05:52:35;8.90;99.90
52415;DHT22;38340;52.964;6.086;2023-03-25T05:55:02;8.90;99.90
52415;DHT22;38340;52.964;6.086;2023-03-25T05:57:28;8.90;99.90
52415;DHT22;38340;52.964;6.086;2023-03-25T05:59:54;8.90;99.90
52415;DHT22;38340;52.964;6.086;2023-03-25T06:02:20;8.90;99.90
52415;DHT22;38340;52.964;6.086;2023-03-25T06:04:47;9.00;99.90
52415;DHT22;38340;52.964;6.086;2023-03-25T06:07:15;9.00;99.90
52415;DHT22;38340;52.964;6.086;2023-03-25T06:09:48;8.90;99.90
52415;DHT22;38340;52.964;6.086;2023-03-25T06:12:15;9.00;99.90
52415;DHT22;38340;52.964;6.086;2023-03-25T06:14:42;9.00;99.90
52415;DHT22;38340;52.964;6.086;2023-03-25T06:17:16;9.00;99.90
52415;DHT22;38340;52.964;6.086;2023-03-25T06:19:43;9.00;99.90
52415;DHT22;38340;52.964;6.086;2023-03-25T06:22:10;9.00;99.90
52415;DHT22;38340;52.964;6.086;2023-03-25T06:24:40;8.90;99.90
52415;DHT22;38340;52.964;6.086;2023-03-25T06:27:14;8.90;99.90
52415;DHT22;38340;52.964;6.086;2023-03-25T06:29:40;9.00;99.90
52415;DHT22;38340;52.964;6.086;2023-03-25T06:32:07;9.00;99.90
52415;DHT22;38340;52.964;6.086;2023-03-25T06:34:33;9.00;99.90
52415;DHT22;38340;52.964;6.086;2023-03-25T06:37:02;9.00;99.90
52415;DHT22;38340;52.964;6.086;2023-03-25T06:39:28;9.00;99.90
52415;DHT22;38340;52.964;6.086;2023-03-25T06:41:59;9.00;99.90
52415;DHT22;38340;52.964;6.086;2023-03-25T06:44:26;9.10;99.90
52415;DHT22;38340;52.964;6.086;2023-03-25T06:46:52;9.10;99.90
52415;DHT22;38340;52.964;6.086;2023-03-25T06:49:18;9.10;99.90
52415;DHT22;38340;52.964;6.086;2023-03-25T06:51:43;9.10;99.90
52415;DHT22;38340;52.964;6.086;2023-03-25T06:54:09;9.10;99.90
52415;DHT22;38340;52.964;6.086;2023-03-25T06:56:35;9.20;99.90
52415;DHT22;38340;52.964;6.086;2023-03-25T06:59:01;9.10;99.90
52415;DHT22;38340;52.964;6.086;2023-03-25T07:01:27;9.10;99.90
52415;DHT22;38340;52.964;6.086;2023-03-25T07:03:53;9.10;99.90
52415;DHT22;38340;52.964;6.086;2023-03-25T07:06:22;9.10;99.90
52415;DHT22;38340;52.964;6.086;2023-03-25T07:08:48;9.10;99.90
52415;DHT22;38340;52.964;6.086;2023-03-25T07:11:16;9.20;99.90
52415;DHT22;38340;52.964;6.086;2023-03-25T07:13:42;9.10;99.90
52415;DHT22;38340;52.964;6.086;2023-03-25T07:16:08;8.90;99.90
52415;DHT22;38340;52.964;6.086;2023-03-25T07:18:36;8.90;99.90
52415;DHT22;38340;52.964;6.086;2023-03-25T07:21:01;8.80;99.90
52415;DHT22;38340;52.964;6.086;2023-03-25T07:23:27;8.70;99.90
52415;DHT22;38340;52.964;6.086;2023-03-25T07:25:53;8.60;99.90
52415;DHT22;38340;52.964;6.086;2023-03-25T07:28:21;8.60;99.90
52415;DHT22;38340;52.964;6.086;2023-03-25T07:30:47;8.50;99.90
52415;DHT22;38340;52.964;6.086;2023-03-25T07:33:13;8.40;99.90
52415;DHT22;38340;52.964;6.086;2023-03-25T07:35:39;8.40;99.90
52415;DHT22;38340;52.964;6.086;2023-03-25T07:38:04;8.30;99.90
52415;DHT22;38340;52.964;6.086;2023-03-25T07:40:30;8.30;99.90
52415;DHT22;38340;52.964;6.086;2023-03-25T07:42:56;8.30;99.90
52415;DHT22;38340;52.964;6.086;2023-03-25T07:45:22;8.30;99.90
52415;DHT22;38340;52.964;6.086;2023-03-25T07:47:47;8.20;99.90
52415;DHT22;38340;52.964;6.086;2023-03-25T07:50:18;8.20;99.90
52415;DHT22;38340;52.964;6.086;2023-03-25T07:52:45;8.10;99.90
52415;DHT22;38340;52.964;6.086;2023-03-25T07:55:11;8.10;99.90
52415;DHT22;38340;52.964;6.086;2023-03-25T07:57:39;8.10;99.90
52415;DHT22;38340;52.964;6.086;2023-03-25T08:00:06;8.10;99.90
52415;DHT22;38340;52.964;6.086;2023-03-25T08:02:31;8.10;99.90
52415;DHT22;38340;52.964;6.086;2023-03-25T08:04:57;8.30;99.90
52415;DHT22;38340;52.964;6.086;2023-03-25T08:07:23;8.30;99.90
52415;DHT22;38340;52.964;6.086;2023-03-25T08:09:48;8.40;99.90
52415;DHT22;38340;52.964;6.086;2023-03-25T08:12:14;8.50;99.90
52415;DHT22;38340;52.964;6.086;2023-03-25T08:14:40;8.60;99.90
52415;DHT22;38340;52.964;6.086;2023-03-25T08:17:06;8.70;99.90
52415;DHT22;38340;52.964;6.086;2023-03-25T08:19:32;8.80;99.90
52415;DHT22;38340;52.964;6.086;2023-03-25T08:21:58;8.70;99.90
52415;DHT22;38340;52.964;6.086;2023-03-25T08:24:23;8.70;99.90
52415;DHT22;38340;52.964;6.086;2023-03-25T08:26:51;8.70;99.90
52415;DHT22;38340;52.964;6.086;2023-03-25T08:29:18;8.70;99.90
52415;DHT22;38340;52.964;6.086;2023-03-25T08:31:45;8.70;99.90
52415;DHT22;38340;52.964;6.086;2023-03-25T08:34:12;8.80;99.90
52415;DHT22;38340;52.964;6.086;2023-03-25T08:36:38;8.90;99.90
52415;DHT22;38340;52.964;6.086;2023-03-25T08:39:05;9.10;99.90
52415;DHT22;38340;52.964;6.086;2023-03-25T08:41:36;9.20;99.90
52415;DHT22;38340;52.964;6.086;2023-03-25T08:44:03;9.40;99.90
52415;DHT22;38340;52.964;6.086;2023-03-25T08:46:29;9.50;99.90
52415;DHT22;38340;52.964;6.086;2023-03-25T08:48:55;9.40;99.90
52415;DHT22;38340;52.964;6.086;2023-03-25T08:51:21;9.40;99.90
52415;DHT22;38340;52.964;6.086;2023-03-25T08:53:46;9.40;99.90
52415;DHT22;38340;52.964;6.086;2023-03-25T08:56:12;9.50;99.90
52415;DHT22;38340;52.964;6.086;2023-03-25T08:58:38;9.50;99.90
52415;DHT22;38340;52.964;6.086;2023-03-25T09:01:04;9.60;99.90
52415;DHT22;38340;52.964;6.086;2023-03-25T09:03:31;9.80;99.90
52415;DHT22;38340;52.964;6.086;2023-03-25T09:05:57;9.80;99.90
52415;DHT22;38340;52.964;6.086;2023-03-25T09:08:22;9.80;99.90
52415;DHT22;38340;52.964;6.086;2023-03-25T09:10:48;9.80;99.90
52415;DHT22;38340;52.964;6.086;2023-03-25T09:13:14;9.80;99.90
52415;DHT22;38340;52.964;6.086;2023-03-25T09:15:40;9.90;99.90
52415;DHT22;38340;52.964;6.086;2023-03-25T09:18:06;10.00;99.90
52415;DHT22;38340;52.964;6.086;2023-03-25T09:20:32;10.10;99.90
52415;DHT22;38340;52.964;6.086;2023-03-25T09:22:58;10.10;99.90
52415;DHT22;38340;52.964;6.086;2023-03-25T09:25:24;10.10;99.90
52415;DHT22;38340;52.964;6.086;2023-03-25T09:27:50;10.10;99.90
52415;DHT22;38340;52.964;6.086;2023-03-25T09:30:15;10.10;99.90
52415;DHT22;38340;52.964;6.086;2023-03-25T09:32:41;10.20;99.90
52415;DHT22;38340;52.964;6.086;2023-03-25T09:35:07;10.30;99.90
52415;DHT22;38340;52.964;6.086;2023-03-25T09:37:33;10.40;99.90
52415;DHT22;38340;52.964;6.086;2023-03-25T09:39:59;10.40;99.90
52415;DHT22;38340;52.964;6.086;2023-03-25T09:42:46;10.30;99.90
52415;DHT22;38340;52.964;6.086;2023-03-25T09:48:26;10.10;99.90
52415;DHT22;38340;52.964;6.086;2023-03-25T09:50:56;10.20;99.90
52415;DHT22;38340;52.964;6.086;2023-03-25T09:56:20;10.30;99.90
52415;DHT22;38340;52.964;6.086;2023-03-25T09:59:22;10.30;99.90
52415;DHT22;38340;52.964;6.086;2023-03-25T10:05:28;10.30;99.90
52415;DHT22;38340;52.964;6.086;2023-03-25T10:11:06;10.40;99.90
52415;DHT22;38340;52.964;6.086;2023-03-25T10:13:43;10.40;99.90
52415;DHT22;38340;52.964;6.086;2023-03-25T10:16:36;10.50;99.90
52415;DHT22;38340;52.964;6.086;2023-03-25T10:24:52;10.60;99.90
52415;DHT22;38340;52.964;6.086;2023-03-25T10:29:56;10.60;99.90
52415;DHT22;38340;52.964;6.086;2023-03-25T10:32:35;10.60;99.90
52415;DHT22;38340;52.964;6.086;2023-03-25T10:35:04;10.70;99.90
52415;DHT22;38340;52.964;6.086;2023-03-25T10:37:33;10.70;99.90
52415;DHT22;38340;52.964;6.086;2023-03-25T10:40:24;10.80;99.90
52415;DHT22;38340;52.964;6.086;2023-03-25T10:45:37;10.70;99.90
52415;DHT22;38340;52.964;6.086;2023-03-25T10:48:12;10.70;99.90
52415;DHT22;38340;52.964;6.086;2023-03-25T10:50:41;10.90;99.90
52415;DHT22;38340;52.964;6.086;2023-03-25T10:53:21;10.80;99.90
52415;DHT22;38340;52.964;6.086;2023-03-25T10:55:57;10.90;99.90
52415;DHT22;38340;52.964;6.086;2023-03-25T10:58:25;10.90;99.90
52415;DHT22;38340;52.964;6.086;2023-03-25T11:00:51;11.00;99.90
52415;DHT22;38340;52.964;6.086;2023-03-25T11:03:21;11.10;99.90
52415;DHT22;38340;52.964;6.086;2023-03-25T11:05:48;11.20;99.90
52415;DHT22;38340;52.964;6.086;2023-03-25T11:08:14;11.40;99.90
52415;DHT22;38340;52.964;6.086;2023-03-25T11:10:46;11.40;99.90
52415;DHT22;38340;52.964;6.086;2023-03-25T11:13:13;11.70;99.90
52415;DHT22;38340;52.964;6.086;2023-03-25T11:15:41;11.60;99.90
52415;DHT22;38340;52.964;6.086;2023-03-25T11:21:00;11.90;99.90
52415;DHT22;38340;52.964;6.086;2023-03-25T11:23:41;12.10;99.90
52415;DHT22;38340;52.964;6.086;2023-03-25T11:26:12;12.00;96.30
52415;DHT22;38340;52.964;6.086;2023-03-25T11:28:47;12.10;99.90
52415;DHT22;38340;52.964;6.086;2023-03-25T11:31:17;11.90;1.00
52415;DHT22;38340;52.964;6.086;2023-03-25T11:34:20;11.80;1.00
52415;DHT22;38340;52.964;6.086;2023-03-25T11:39:36;12.00;99.90
52415;DHT22;38340;52.964;6.086;2023-03-25T11:44:49;11.90;1.00
52415;DHT22;38340;52.964;6.086;2023-03-25T11:47:20;11.80;1.00
52415;DHT22;38340;52.964;6.086;2023-03-25T11:49:48;11.70;1.00
52415;DHT22;38340;52.964;6.086;2023-03-25T11:52:23;11.50;35.50
52415;DHT22;38340;52.964;6.086;2023-03-25T11:54:52;11.60;19.10
52415;DHT22;38340;52.964;6.086;2023-03-25T11:57:23;11.60;1.00
52415;DHT22;38340;52.964;6.086;2023-03-25T12:00:00;11.60;1.00
52415;DHT22;38340;52.964;6.086;2023-03-25T12:02:39;11.80;99.90
52415;DHT22;38340;52.964;6.086;2023-03-25T12:07:48;12.10;99.90
52415;DHT22;38340;52.964;6.086;2023-03-25T12:13:33;12.20;1.00
52415;DHT22;38340;52.964;6.086;2023-03-25T12:21:42;12.00;1.00
52415;DHT22;38340;52.964;6.086;2023-03-25T12:35:39;12.00;99.90
52415;DHT22;38340;52.964;6.086;2023-03-25T12:41:36;11.90;99.90
52415;DHT22;38340;52.964;6.086;2023-03-25T12:44:09;12.20;1.00
52415;DHT22;38340;52.964;6.086;2023-03-25T12:51:59;12.10;99.90
52415;DHT22;38340;52.964;6.086;2023-03-25T12:54:36;12.20;99.90
52415;DHT22;38340;52.964;6.086;2023-03-25T13:00:10;12.30;99.90
52415;DHT22;38340;52.964;6.086;2023-03-25T13:07:53;11.80;99.90
52415;DHT22;38340;52.964;6.086;2023-03-25T13:10:22;11.80;1.00
52415;DHT22;38340;52.964;6.086;2023-03-25T13:12:55;11.80;1.00
52415;DHT22;38340;52.964;6.086;2023-03-25T13:15:34;11.70;1.00
52415;DHT22;38340;52.964;6.086;2023-03-25T13:18:11;11.50;1.00
52415;DHT22;38340;52.964;6.086;2023-03-25T13:20:48;11.50;79.10
52415;DHT22;38340;52.964;6.086;2023-03-25T13:23:20;11.20;58.00
52415;DHT22;38340;52.964;6.086;2023-03-25T13:25:50;11.10;4.40
52415;DHT22;38340;52.964;6.086;2023-03-25T13:28:27;10.90;99.90
52415;DHT22;38340;52.964;6.086;2023-03-25T13:30:55;11.00;99.90
52415;DHT22;38340;52.964;6.086;2023-03-25T13:33:32;11.30;99.90
52415;DHT22;38340;52.964;6.086;2023-03-25T13:36:41;11.30;99.90
52415;DHT22;38340;52.964;6.086;2023-03-25T13:39:29;11.10;99.90
52415;DHT22;38340;52.964;6.086;2023-03-25T13:42:12;11.10;99.90
52415;DHT22;38340;52.964;6.086;2023-03-25T13:44:42;11.00;99.90
52415;DHT22;38340;52.964;6.086;2023-03-25T13:49:40;10.60;99.90
52415;DHT22;38340;52.964;6.086;2023-03-25T13:52:07;10.20;99.90
52415;DHT22;38340;52.964;6.086;2023-03-25T13:54:55;9.60;99.90
52415;DHT22;38340;52.964;6.086;2023-03-25T14:03:23;8.30;99.90
52415;DHT22;38340;52.964;6.086;2023-03-25T14:11:41;8.20;99.90
52415;DHT22;38340;52.964;6.086;2023-03-25T14:14:11;8.20;99.90
52415;DHT22;38340;52.964;6.086;2023-03-25T14:16:45;8.40;99.90
52415;DHT22;38340;52.964;6.086;2023-03-25T14:22:20;8.40;99.90
52415;DHT22;38340;52.964;6.086;2023-03-25T14:24:48;8.70;99.90
52415;DHT22;38340;52.964;6.086;2023-03-25T14:27:17;8.90;99.90
52415;DHT22;38340;52.964;6.086;2023-03-25T14:29:54;8.90;99.90
52415;DHT22;38340;52.964;6.086;2023-03-25T14:34:47;9.10;99.90
52415;DHT22;38340;52.964;6.086;2023-03-25T14:39:56;9.10;99.90
52415;DHT22;38340;52.964;6.086;2023-03-25T14:42:29;9.10;99.90
52415;DHT22;38340;52.964;6.086;2023-03-25T14:47:56;9.20;99.90
52415;DHT22;38340;52.964;6.086;2023-03-25T14:52:54;9.30;99.90
52415;DHT22;38340;52.964;6.086;2023-03-25T14:55:33;9.30;99.90
52415;DHT22;38340;52.964;6.086;2023-03-25T14:58:06;9.20;99.90
52415;DHT22;38340;52.964;6.086;2023-03-25T15:00:49;9.20;99.90
52415;DHT22;38340;52.964;6.086;2023-03-25T15:03:17;9.20;99.90
52415;DHT22;38340;52.964;6.086;2023-03-25T15:05:52;9.00;99.90
52415;DHT22;38340;52.964;6.086;2023-03-25T15:08:27;8.90;99.90
52415;DHT22;38340;52.964;6.086;2023-03-25T15:11:11;8.80;99.90
52415;DHT22;38340;52.964;6.086;2023-03-25T15:13:41;8.80;99.90
52415;DHT22;38340;52.964;6.086;2023-03-25T15:19:13;9.20;99.90
52415;DHT22;38340;52.964;6.086;2023-03-25T15:24:34;9.40;99.90
52415;DHT22;38340;52.964;6.086;2023-03-25T15:28:00;9.50;99.90
52415;DHT22;38340;52.964;6.086;2023-03-25T15:30:47;9.50;99.90
52415;DHT22;38340;52.964;6.086;2023-03-25T15:39:04;9.80;99.90
52415;DHT22;38340;52.964;6.086;2023-03-25T15:47:44;9.90;99.90
52415;DHT22;38340;52.964;6.086;2023-03-25T15:55:39;9.70;99.90
52415;DHT22;38340;52.964;6.086;2023-03-25T15:58:12;9.60;99.90
52415;DHT22;38340;52.964;6.086;2023-03-25T16:00:47;9.50;99.90
52415;DHT22;38340;52.964;6.086;2023-03-25T16:03:28;9.50;99.90
52415;DHT22;38340;52.964;6.086;2023-03-25T16:06:03;9.50;99.90
52415;DHT22;38340;52.964;6.086;2023-03-25T16:08:39;9.40;99.90
52415;DHT22;38340;52.964;6.086;2023-03-25T16:13:44;9.40;99.90
52415;DHT22;38340;52.964;6.086;2023-03-25T16:16:11;9.40;99.90
52415;DHT22;38340;52.964;6.086;2023-03-25T16:18:40;9.30;99.90
52415;DHT22;38340;52.964;6.086;2023-03-25T16:21:08;9.30;99.90
52415;DHT22;38340;52.964;6.086;2023-03-25T16:23:35;9.30;99.90
52415;DHT22;38340;52.964;6.086;2023-03-25T16:26:01;9.30;99.90
52415;DHT22;38340;52.964;6.086;2023-03-25T16:28:32;9.30;99.90
52415;DHT22;38340;52.964;6.086;2023-03-25T16:30:58;9.30;99.90
52415;DHT22;38340;52.964;6.086;2023-03-25T16:36:03;9.30;99.90
52415;DHT22;38340;52.964;6.086;2023-03-25T16:38:30;9.30;99.90
52415;DHT22;38340;52.964;6.086;2023-03-25T16:41:02;9.40;99.90
52415;DHT22;38340;52.964;6.086;2023-03-25T16:43:29;9.40;99.90
52415;DHT22;38340;52.964;6.086;2023-03-25T16:46:03;9.40;99.90
52415;DHT22;38340;52.964;6.086;2023-03-25T16:48:38;9.40;99.90
52415;DHT22;38340;52.964;6.086;2023-03-25T16:51:13;9.40;99.90
52415;DHT22;38340;52.964;6.086;2023-03-25T16:53:40;9.50;99.90
52415;DHT22;38340;52.964;6.086;2023-03-25T16:59:06;9.40;99.90
52415;DHT22;38340;52.964;6.086;2023-03-25T17:01:37;9.30;99.90
52415;DHT22;38340;52.964;6.086;2023-03-25T17:04:14;9.20;99.90
52415;DHT22;38340;52.964;6.086;2023-03-25T17:06:46;9.20;99.90
52415;DHT22;38340;52.964;6.086;2023-03-25T17:09:22;9.20;99.90
52415;DHT22;38340;52.964;6.086;2023-03-25T17:11:53;9.10;99.90
52415;DHT22;38340;52.964;6.086;2023-03-25T17:14:32;9.10;99.90
52415;DHT22;38340;52.964;6.086;2023-03-25T17:19:49;9.10;99.90
52415;DHT22;38340;52.964;6.086;2023-03-25T17:22:27;9.10;99.90
52415;DHT22;38340;52.964;6.086;2023-03-25T17:25:13;9.00;99.90
52415;DHT22;38340;52.964;6.086;2023-03-25T17:27:40;9.00;99.90
52415;DHT22;38340;52.964;6.086;2023-03-25T17:30:21;9.00;99.90
52415;DHT22;38340;52.964;6.086;2023-03-25T17:33:17;9.00;99.90
52415;DHT22;38340;52.964;6.086;2023-03-25T17:35:51;8.90;99.90
52415;DHT22;38340;52.964;6.086;2023-03-25T17:38:34;8.90;99.90
52415;DHT22;38340;52.964;6.086;2023-03-25T17:41:08;8.90;99.90
52415;DHT22;38340;52.964;6.086;2023-03-25T17:43:43;8.80;99.90
52415;DHT22;38340;52.964;6.086;2023-03-25T17:46:20;8.80;99.90
52415;DHT22;38340;52.964;6.086;2023-03-25T17:48:46;8.80;99.90
52415;DHT22;38340;52.964;6.086;2023-03-25T17:51:17;8.70;99.90
52415;DHT22;38340;52.964;6.086;2023-03-25T17:53:43;8.70;99.90
52415;DHT22;38340;52.964;6.086;2023-03-25T17:56:11;8.70;99.90
52415;DHT22;38340;52.964;6.086;2023-03-25T17:58:38;8.70;99.90
52415;DHT22;38340;52.964;6.086;2023-03-25T18:01:04;8.70;99.90
52415;DHT22;38340;52.964;6.086;2023-03-25T18:03:30;8.60;99.90
52415;DHT22;38340;52.964;6.086;2023-03-25T18:05:57;8.60;99.90
52415;DHT22;38340;52.964;6.086;2023-03-25T18:08:26;8.60;99.90
52415;DHT22;38340;52.964;6.086;2023-03-25T18:10:53;8.60;99.90
52415;DHT22;38340;52.964;6.086;2023-03-25T18:13:20;8.50;99.90
52415;DHT22;38340;52.964;6.086;2023-03-25T18:15:46;8.60;99.90
52415;DHT22;38340;52.964;6.086;2023-03-25T18:18:19;8.60;99.90
52415;DHT22;38340;52.964;6.086;2023-03-25T18:20:46;8.50;99.90
52415;DHT22;38340;52.964;6.086;2023-03-25T18:23:15;8.50;99.90
52415;DHT22;38340;52.964;6.086;2023-03-25T18:25:42;8.50;99.90
52415;DHT22;38340;52.964;6.086;2023-03-25T18:28:10;8.50;99.90
52415;DHT22;38340;52.964;6.086;2023-03-25T18:30:54;8.50;99.90
52415;DHT22;38340;52.964;6.086;2023-03-25T18:33:21;8.50;99.90
52415;DHT22;38340;52.964;6.086;2023-03-25T18:35:47;8.50;99.90
52415;DHT22;38340;52.964;6.086;2023-03-25T18:38:19;8.50;99.90
52415;DHT22;38340;52.964;6.086;2023-03-25T18:40:46;8.40;99.90
52415;DHT22;38340;52.964;6.086;2023-03-25T18:43:12;8.40;99.90
52415;DHT22;38340;52.964;6.086;2023-03-25T18:45:38;8.40;99.90
52415;DHT22;38340;52.964;6.086;2023-03-25T18:48:04;8.30;99.90
52415;DHT22;38340;52.964;6.086;2023-03-25T18:52:58;8.30;99.90
52415;DHT22;38340;52.964;6.086;2023-03-25T18:55:25;8.30;99.90